Etusivu
METAR-TAF:

METAR-TAF

Lentoasemat :

Morlaix, Ranska

Leveyspiiri: 48-36N, Pituuspiiri: 3-49W, korkeus merenpinnasta: 84 m

Tämänhetkinen sää

Tämä raportti tehtiin 9 tuntia ja 32 minuuttia sitten, kello 18.00 UTC
Tuuli 6 kn lännestä
Lämpötila 8°C
Kosteus 93%
Ilmanpaine 1025 hPa
Näkyvyys 10 km tai enemmän
heikkoa sadetta

METAR: LFRU 181800Z AUTO 28006KT 9999 -RA SCT011/// BKN019/// BKN029/// ///CB 08/07 Q1025

Aika: 04:32 (03:32 UTC)


TAF: puuttuu

Säähavainnot ja -ennusteet yli 4000 lentoasemalta (METAR- ja TAF-raportit).

Käytössä olevat sääasemat on merkitty karttaan keltaisilla ja punaisilla pisteillä.

Aseta hiiri pisteen päälle nähdäksesi sääaseman nimen.

Klikkaa sitten nähdäksesi säähavainnot ja -ennusteet.

Kartan vaihtaminen: klikkaa mustalla rastilla varustettuja vihreitä pisteitä, niin voit zoomata sisään; viivalla varustettua vihreää pistettä, niin voit zoomata ulos tai vihreitä nuolia, niin pääset viereisille kartoille.


METAR-TAF: